sensor_id;sensor_type;location;lat;lon;timestamp;P1;durP1;ratioP1;P2;durP2;ratioP2
19127;SDS011;9696;53.686;10.094;2023-09-07T00:01:01;6.22;;;4.60;;
19127;SDS011;9696;53.686;10.094;2023-09-07T00:03:34;6.05;;;4.57;;
19127;SDS011;9696;53.686;10.094;2023-09-07T00:06:10;9.75;;;5.00;;
19127;SDS011;9696;53.686;10.094;2023-09-07T00:08:39;8.95;;;5.15;;
19127;SDS011;9696;53.686;10.094;2023-09-07T00:11:08;7.20;;;5.53;;
19127;SDS011;9696;53.686;10.094;2023-09-07T00:13:37;10.05;;;5.55;;
19127;SDS011;9696;53.686;10.094;2023-09-07T00:16:07;8.40;;;5.13;;
19127;SDS011;9696;53.686;10.094;2023-09-07T00:18:36;11.95;;;5.35;;
19127;SDS011;9696;53.686;10.094;2023-09-07T00:21:05;8.38;;;5.40;;
19127;SDS011;9696;53.686;10.094;2023-09-07T00:23:36;6.00;;;4.53;;
19127;SDS011;9696;53.686;10.094;2023-09-07T00:26:07;9.10;;;4.57;;
19127;SDS011;9696;53.686;10.094;2023-09-07T00:28:39;4.95;;;4.32;;
19127;SDS011;9696;53.686;10.094;2023-09-07T00:31:09;7.40;;;4.80;;
19127;SDS011;9696;53.686;10.094;2023-09-07T00:33:38;5.35;;;4.47;;
19127;SDS011;9696;53.686;10.094;2023-09-07T00:36:07;6.88;;;4.75;;
19127;SDS011;9696;53.686;10.094;2023-09-07T00:38:38;5.93;;;4.20;;
19127;SDS011;9696;53.686;10.094;2023-09-07T00:41:08;5.90;;;4.25;;
19127;SDS011;9696;53.686;10.094;2023-09-07T00:43:37;6.25;;;4.18;;
19127;SDS011;9696;53.686;10.094;2023-09-07T00:46:08;5.75;;;4.28;;
19127;SDS011;9696;53.686;10.094;2023-09-07T00:48:37;5.90;;;3.95;;
19127;SDS011;9696;53.686;10.094;2023-09-07T00:51:07;5.70;;;3.88;;
19127;SDS011;9696;53.686;10.094;2023-09-07T00:53:38;9.85;;;4.13;;
19127;SDS011;9696;53.686;10.094;2023-09-07T00:56:07;8.77;;;4.47;;
19127;SDS011;9696;53.686;10.094;2023-09-07T00:58:37;5.68;;;4.07;;
19127;SDS011;9696;53.686;10.094;2023-09-07T01:01:08;9.02;;;4.30;;
19127;SDS011;9696;53.686;10.094;2023-09-07T01:03:37;5.55;;;4.50;;
19127;SDS011;9696;53.686;10.094;2023-09-07T01:06:07;5.30;;;4.13;;
19127;SDS011;9696;53.686;10.094;2023-09-07T01:08:42;6.45;;;4.55;;
19127;SDS011;9696;53.686;10.094;2023-09-07T01:11:14;10.13;;;4.93;;
19127;SDS011;9696;53.686;10.094;2023-09-07T01:13:43;6.70;;;4.47;;
19127;SDS011;9696;53.686;10.094;2023-09-07T01:16:13;7.60;;;4.60;;
19127;SDS011;9696;53.686;10.094;2023-09-07T01:18:50;8.25;;;4.93;;
19127;SDS011;9696;53.686;10.094;2023-09-07T01:21:20;9.00;;;4.47;;
19127;SDS011;9696;53.686;10.094;2023-09-07T01:23:51;6.03;;;4.22;;
19127;SDS011;9696;53.686;10.094;2023-09-07T01:26:21;9.93;;;4.22;;
19127;SDS011;9696;53.686;10.094;2023-09-07T01:28:51;7.07;;;4.85;;
19127;SDS011;9696;53.686;10.094;2023-09-07T01:31:20;6.38;;;4.30;;
19127;SDS011;9696;53.686;10.094;2023-09-07T01:33:49;8.15;;;4.07;;
19127;SDS011;9696;53.686;10.094;2023-09-07T01:36:18;5.07;;;3.95;;
19127;SDS011;9696;53.686;10.094;2023-09-07T01:38:47;5.97;;;4.40;;
19127;SDS011;9696;53.686;10.094;2023-09-07T01:41:18;6.80;;;4.93;;
19127;SDS011;9696;53.686;10.094;2023-09-07T01:43:47;4.43;;;4.00;;
19127;SDS011;9696;53.686;10.094;2023-09-07T01:46:16;8.57;;;4.90;;
19127;SDS011;9696;53.686;10.094;2023-09-07T01:48:46;6.25;;;4.05;;
19127;SDS011;9696;53.686;10.094;2023-09-07T01:51:15;10.70;;;4.32;;
19127;SDS011;9696;53.686;10.094;2023-09-07T01:53:46;5.88;;;4.75;;
19127;SDS011;9696;53.686;10.094;2023-09-07T01:56:17;6.55;;;4.63;;
19127;SDS011;9696;53.686;10.094;2023-09-07T01:58:46;5.97;;;4.70;;
19127;SDS011;9696;53.686;10.094;2023-09-07T02:01:22;7.82;;;4.93;;
19127;SDS011;9696;53.686;10.094;2023-09-07T02:03:52;8.18;;;4.85;;
19127;SDS011;9696;53.686;10.094;2023-09-07T02:06:21;9.00;;;4.40;;
19127;SDS011;9696;53.686;10.094;2023-09-07T02:08:50;5.95;;;3.95;;
19127;SDS011;9696;53.686;10.094;2023-09-07T02:11:22;5.75;;;4.45;;
19127;SDS011;9696;53.686;10.094;2023-09-07T02:13:52;12.40;;;4.75;;
19127;SDS011;9696;53.686;10.094;2023-09-07T02:16:21;7.53;;;5.43;;
19127;SDS011;9696;53.686;10.094;2023-09-07T02:18:50;12.68;;;4.82;;
19127;SDS011;9696;53.686;10.094;2023-09-07T02:21:27;11.05;;;4.82;;
19127;SDS011;9696;53.686;10.094;2023-09-07T02:23:57;16.23;;;5.03;;
19127;SDS011;9696;53.686;10.094;2023-09-07T02:26:27;7.65;;;4.57;;
19127;SDS011;9696;53.686;10.094;2023-09-07T02:28:57;6.32;;;4.32;;
19127;SDS011;9696;53.686;10.094;2023-09-07T02:31:26;7.82;;;4.47;;
19127;SDS011;9696;53.686;10.094;2023-09-07T02:33:55;6.88;;;4.55;;
19127;SDS011;9696;53.686;10.094;2023-09-07T02:36:24;7.20;;;4.60;;
19127;SDS011;9696;53.686;10.094;2023-09-07T02:38:53;8.10;;;4.70;;
19127;SDS011;9696;53.686;10.094;2023-09-07T02:41:23;7.35;;;5.00;;
19127;SDS011;9696;53.686;10.094;2023-09-07T02:43:53;8.07;;;4.78;;
19127;SDS011;9696;53.686;10.094;2023-09-07T02:46:23;6.82;;;4.70;;
19127;SDS011;9696;53.686;10.094;2023-09-07T02:48:52;8.43;;;5.03;;
19127;SDS011;9696;53.686;10.094;2023-09-07T02:51:25;8.82;;;5.65;;
19127;SDS011;9696;53.686;10.094;2023-09-07T02:53:55;10.15;;;5.40;;
19127;SDS011;9696;53.686;10.094;2023-09-07T02:56:25;6.40;;;5.50;;
19127;SDS011;9696;53.686;10.094;2023-09-07T02:58:56;8.33;;;5.73;;
19127;SDS011;9696;53.686;10.094;2023-09-07T03:01:26;8.10;;;6.20;;
19127;SDS011;9696;53.686;10.094;2023-09-07T03:03:56;7.20;;;5.75;;
19127;SDS011;9696;53.686;10.094;2023-09-07T03:06:25;9.77;;;6.05;;
19127;SDS011;9696;53.686;10.094;2023-09-07T03:08:54;11.45;;;5.90;;
19127;SDS011;9696;53.686;10.094;2023-09-07T03:11:24;8.05;;;6.15;;
19127;SDS011;9696;53.686;10.094;2023-09-07T03:13:53;13.13;;;6.38;;
19127;SDS011;9696;53.686;10.094;2023-09-07T03:16:24;7.90;;;5.90;;
19127;SDS011;9696;53.686;10.094;2023-09-07T03:18:53;10.57;;;6.07;;
19127;SDS011;9696;53.686;10.094;2023-09-07T03:21:23;9.65;;;6.13;;
19127;SDS011;9696;53.686;10.094;2023-09-07T03:23:56;7.07;;;5.75;;
19127;SDS011;9696;53.686;10.094;2023-09-07T03:26:26;10.25;;;6.32;;
19127;SDS011;9696;53.686;10.094;2023-09-07T03:28:55;8.93;;;6.43;;
19127;SDS011;9696;53.686;10.094;2023-09-07T03:31:26;8.53;;;6.07;;
19127;SDS011;9696;53.686;10.094;2023-09-07T03:33:55;8.07;;;6.30;;
19127;SDS011;9696;53.686;10.094;2023-09-07T03:36:25;8.60;;;6.10;;
19127;SDS011;9696;53.686;10.094;2023-09-07T03:38:54;8.27;;;6.30;;
19127;SDS011;9696;53.686;10.094;2023-09-07T03:41:23;12.35;;;6.93;;
19127;SDS011;9696;53.686;10.094;2023-09-07T03:43:57;8.00;;;6.93;;
19127;SDS011;9696;53.686;10.094;2023-09-07T03:46:29;7.93;;;6.33;;
19127;SDS011;9696;53.686;10.094;2023-09-07T03:48:59;14.87;;;7.17;;
19127;SDS011;9696;53.686;10.094;2023-09-07T03:51:28;12.07;;;7.17;;
19127;SDS011;9696;53.686;10.094;2023-09-07T03:53:57;8.65;;;6.57;;
19127;SDS011;9696;53.686;10.094;2023-09-07T03:56:27;9.98;;;6.75;;
19127;SDS011;9696;53.686;10.094;2023-09-07T03:58:56;12.55;;;6.63;;
19127;SDS011;9696;53.686;10.094;2023-09-07T04:01:25;13.37;;;7.07;;
19127;SDS011;9696;53.686;10.094;2023-09-07T04:03:57;8.73;;;6.47;;
19127;SDS011;9696;53.686;10.094;2023-09-07T04:06:26;11.20;;;6.85;;
19127;SDS011;9696;53.686;10.094;2023-09-07T04:08:55;9.93;;;6.27;;
19127;SDS011;9696;53.686;10.094;2023-09-07T04:11:25;7.97;;;5.97;;
19127;SDS011;9696;53.686;10.094;2023-09-07T04:13:54;9.57;;;6.73;;
19127;SDS011;9696;53.686;10.094;2023-09-07T04:16:23;9.63;;;6.73;;
19127;SDS011;9696;53.686;10.094;2023-09-07T04:18:52;10.15;;;6.50;;
19127;SDS011;9696;53.686;10.094;2023-09-07T04:21:24;11.30;;;6.23;;
19127;SDS011;9696;53.686;10.094;2023-09-07T04:23:53;9.18;;;6.47;;
19127;SDS011;9696;53.686;10.094;2023-09-07T04:26:22;9.53;;;6.70;;
19127;SDS011;9696;53.686;10.094;2023-09-07T04:28:51;11.00;;;7.28;;
19127;SDS011;9696;53.686;10.094;2023-09-07T04:31:21;10.13;;;7.35;;
19127;SDS011;9696;53.686;10.094;2023-09-07T04:33:54;11.55;;;7.35;;
19127;SDS011;9696;53.686;10.094;2023-09-07T04:36:24;10.40;;;7.60;;
19127;SDS011;9696;53.686;10.094;2023-09-07T04:38:54;13.68;;;7.95;;
19127;SDS011;9696;53.686;10.094;2023-09-07T04:41:24;11.23;;;8.15;;
19127;SDS011;9696;53.686;10.094;2023-09-07T04:43:53;10.95;;;7.38;;
19127;SDS011;9696;53.686;10.094;2023-09-07T04:46:24;14.53;;;8.17;;
19127;SDS011;9696;53.686;10.094;2023-09-07T04:48:54;10.07;;;7.78;;
19127;SDS011;9696;53.686;10.094;2023-09-07T04:51:25;11.90;;;7.73;;
19127;SDS011;9696;53.686;10.094;2023-09-07T04:53:55;12.77;;;7.93;;
19127;SDS011;9696;53.686;10.094;2023-09-07T04:56:24;10.07;;;7.90;;
19127;SDS011;9696;53.686;10.094;2023-09-07T04:58:55;23.40;;;8.27;;
19127;SDS011;9696;53.686;10.094;2023-09-07T05:01:25;10.53;;;7.83;;
19127;SDS011;9696;53.686;10.094;2023-09-07T05:03:55;13.82;;;7.63;;
19127;SDS011;9696;53.686;10.094;2023-09-07T05:06:26;10.93;;;7.13;;
19127;SDS011;9696;53.686;10.094;2023-09-07T05:08:55;12.38;;;7.60;;
19127;SDS011;9696;53.686;10.094;2023-09-07T05:11:24;9.88;;;6.88;;
19127;SDS011;9696;53.686;10.094;2023-09-07T05:13:53;10.52;;;7.68;;
19127;SDS011;9696;53.686;10.094;2023-09-07T05:16:23;12.00;;;6.43;;
19127;SDS011;9696;53.686;10.094;2023-09-07T05:18:52;18.43;;;7.70;;
19127;SDS011;9696;53.686;10.094;2023-09-07T05:21:21;32.08;;;18.67;;
19127;SDS011;9696;53.686;10.094;2023-09-07T05:23:52;13.55;;;9.73;;
19127;SDS011;9696;53.686;10.094;2023-09-07T05:26:22;9.30;;;6.90;;
19127;SDS011;9696;53.686;10.094;2023-09-07T05:28:52;13.25;;;7.47;;
19127;SDS011;9696;53.686;10.094;2023-09-07T05:31:21;9.88;;;6.65;;
19127;SDS011;9696;53.686;10.094;2023-09-07T05:33:51;10.27;;;6.47;;
19127;SDS011;9696;53.686;10.094;2023-09-07T05:36:20;9.27;;;7.05;;
19127;SDS011;9696;53.686;10.094;2023-09-07T05:38:49;11.98;;;7.75;;
19127;SDS011;9696;53.686;10.094;2023-09-07T05:41:20;9.38;;;6.82;;
19127;SDS011;9696;53.686;10.094;2023-09-07T05:43:49;11.02;;;7.35;;
19127;SDS011;9696;53.686;10.094;2023-09-07T05:46:18;11.57;;;6.68;;
19127;SDS011;9696;53.686;10.094;2023-09-07T05:48:47;17.98;;;7.85;;
19127;SDS011;9696;53.686;10.094;2023-09-07T05:51:17;16.85;;;6.93;;
19127;SDS011;9696;53.686;10.094;2023-09-07T05:53:46;9.05;;;6.80;;
19127;SDS011;9696;53.686;10.094;2023-09-07T05:56:15;13.43;;;6.65;;
19127;SDS011;9696;53.686;10.094;2023-09-07T05:58:46;9.45;;;6.95;;
19127;SDS011;9696;53.686;10.094;2023-09-07T06:01:16;9.82;;;6.50;;
19127;SDS011;9696;53.686;10.094;2023-09-07T06:03:46;8.75;;;5.68;;
19127;SDS011;9696;53.686;10.094;2023-09-07T06:06:15;16.40;;;7.57;;
19127;SDS011;9696;53.686;10.094;2023-09-07T06:08:45;14.85;;;7.80;;
19127;SDS011;9696;53.686;10.094;2023-09-07T06:11:14;10.27;;;7.53;;
19127;SDS011;9696;53.686;10.094;2023-09-07T06:13:44;11.73;;;6.43;;
19127;SDS011;9696;53.686;10.094;2023-09-07T06:16:16;13.88;;;6.47;;
19127;SDS011;9696;53.686;10.094;2023-09-07T06:18:46;8.73;;;5.75;;
19127;SDS011;9696;53.686;10.094;2023-09-07T06:21:15;13.50;;;6.10;;
19127;SDS011;9696;53.686;10.094;2023-09-07T06:23:46;7.93;;;5.75;;
19127;SDS011;9696;53.686;10.094;2023-09-07T06:26:17;7.88;;;5.75;;
19127;SDS011;9696;53.686;10.094;2023-09-07T06:28:48;7.53;;;5.15;;
19127;SDS011;9696;53.686;10.094;2023-09-07T06:31:17;8.27;;;5.25;;
19127;SDS011;9696;53.686;10.094;2023-09-07T06:33:47;5.40;;;4.40;;
19127;SDS011;9696;53.686;10.094;2023-09-07T06:36:16;11.82;;;4.28;;
19127;SDS011;9696;53.686;10.094;2023-09-07T06:39:04;8.50;;;4.97;;
19127;SDS011;9696;53.686;10.094;2023-09-07T06:41:33;11.63;;;4.70;;
19127;SDS011;9696;53.686;10.094;2023-09-07T06:44:04;5.78;;;4.90;;
19127;SDS011;9696;53.686;10.094;2023-09-07T06:46:33;6.97;;;5.57;;
19127;SDS011;9696;53.686;10.094;2023-09-07T06:49:02;9.80;;;5.20;;
19127;SDS011;9696;53.686;10.094;2023-09-07T06:51:32;12.32;;;5.72;;
19127;SDS011;9696;53.686;10.094;2023-09-07T06:54:01;13.52;;;5.28;;
19127;SDS011;9696;53.686;10.094;2023-09-07T06:56:30;13.57;;;4.95;;
19127;SDS011;9696;53.686;10.094;2023-09-07T06:59:01;8.35;;;5.18;;
19127;SDS011;9696;53.686;10.094;2023-09-07T07:01:32;9.80;;;4.78;;
19127;SDS011;9696;53.686;10.094;2023-09-07T07:04:02;12.45;;;6.05;;
19127;SDS011;9696;53.686;10.094;2023-09-07T07:06:32;7.45;;;5.43;;
19127;SDS011;9696;53.686;10.094;2023-09-07T07:09:01;6.75;;;4.70;;
19127;SDS011;9696;53.686;10.094;2023-09-07T07:11:30;5.15;;;3.78;;
19127;SDS011;9696;53.686;10.094;2023-09-07T07:13:59;6.47;;;3.15;;
19127;SDS011;9696;53.686;10.094;2023-09-07T07:16:30;5.20;;;2.85;;
19127;SDS011;9696;53.686;10.094;2023-09-07T07:18:59;9.57;;;3.10;;
19127;SDS011;9696;53.686;10.094;2023-09-07T07:21:29;3.50;;;2.50;;
19127;SDS011;9696;53.686;10.094;2023-09-07T07:23:58;12.20;;;2.80;;
19127;SDS011;9696;53.686;10.094;2023-09-07T07:26:27;10.15;;;2.42;;
19127;SDS011;9696;53.686;10.094;2023-09-07T07:28:56;4.53;;;2.58;;
19127;SDS011;9696;53.686;10.094;2023-09-07T07:31:26;3.08;;;2.40;;
19127;SDS011;9696;53.686;10.094;2023-09-07T07:33:56;3.08;;;2.45;;
19127;SDS011;9696;53.686;10.094;2023-09-07T07:36:26;6.65;;;2.28;;
19127;SDS011;9696;53.686;10.094;2023-09-07T07:39:00;4.57;;;2.67;;
19127;SDS011;9696;53.686;10.094;2023-09-07T07:41:30;3.40;;;2.53;;
19127;SDS011;9696;53.686;10.094;2023-09-07T07:43:59;4.20;;;2.75;;
19127;SDS011;9696;53.686;10.094;2023-09-07T07:46:29;3.78;;;2.50;;
19127;SDS011;9696;53.686;10.094;2023-09-07T07:49:00;3.28;;;2.25;;
19127;SDS011;9696;53.686;10.094;2023-09-07T07:51:29;3.92;;;2.20;;
19127;SDS011;9696;53.686;10.094;2023-09-07T07:53:59;5.32;;;2.22;;
19127;SDS011;9696;53.686;10.094;2023-09-07T07:56:28;8.43;;;2.22;;
19127;SDS011;9696;53.686;10.094;2023-09-07T07:59:00;5.03;;;2.17;;
19127;SDS011;9696;53.686;10.094;2023-09-07T08:01:30;3.97;;;2.50;;
19127;SDS011;9696;53.686;10.094;2023-09-07T08:04:02;14.98;;;2.78;;
19127;SDS011;9696;53.686;10.094;2023-09-07T08:06:33;3.78;;;2.10;;
19127;SDS011;9696;53.686;10.094;2023-09-07T08:09:03;8.82;;;2.35;;
19127;SDS011;9696;53.686;10.094;2023-09-07T08:11:32;4.97;;;2.30;;
19127;SDS011;9696;53.686;10.094;2023-09-07T08:14:02;5.20;;;2.03;;
19127;SDS011;9696;53.686;10.094;2023-09-07T08:16:31;7.07;;;2.60;;
19127;SDS011;9696;53.686;10.094;2023-09-07T08:19:02;2.97;;;2.03;;
19127;SDS011;9696;53.686;10.094;2023-09-07T08:21:32;4.35;;;2.03;;
19127;SDS011;9696;53.686;10.094;2023-09-07T08:24:02;3.65;;;2.20;;
19127;SDS011;9696;53.686;10.094;2023-09-07T08:26:32;3.33;;;2.03;;
19127;SDS011;9696;53.686;10.094;2023-09-07T08:29:07;2.42;;;2.08;;
19127;SDS011;9696;53.686;10.094;2023-09-07T08:31:37;6.80;;;2.45;;
19127;SDS011;9696;53.686;10.094;2023-09-07T08:34:09;4.57;;;2.10;;
19127;SDS011;9696;53.686;10.094;2023-09-07T08:36:40;4.53;;;2.00;;
19127;SDS011;9696;53.686;10.094;2023-09-07T08:39:09;5.65;;;2.25;;
19127;SDS011;9696;53.686;10.094;2023-09-07T08:41:40;5.43;;;2.58;;
19127;SDS011;9696;53.686;10.094;2023-09-07T08:44:27;5.70;;;2.10;;
19127;SDS011;9696;53.686;10.094;2023-09-07T08:46:57;7.32;;;1.90;;
19127;SDS011;9696;53.686;10.094;2023-09-07T08:49:31;2.78;;;1.92;;
19127;SDS011;9696;53.686;10.094;2023-09-07T08:52:01;3.40;;;2.33;;
19127;SDS011;9696;53.686;10.094;2023-09-07T08:54:32;5.40;;;2.15;;
19127;SDS011;9696;53.686;10.094;2023-09-07T08:57:02;3.55;;;2.15;;
19127;SDS011;9696;53.686;10.094;2023-09-07T08:59:32;9.70;;;2.55;;
19127;SDS011;9696;53.686;10.094;2023-09-07T09:02:03;9.57;;;3.47;;
19127;SDS011;9696;53.686;10.094;2023-09-07T09:04:39;4.70;;;2.58;;
19127;SDS011;9696;53.686;10.094;2023-09-07T09:07:08;4.30;;;2.28;;
19127;SDS011;9696;53.686;10.094;2023-09-07T09:09:37;6.35;;;2.45;;
19127;SDS011;9696;53.686;10.094;2023-09-07T09:12:07;5.63;;;2.03;;
19127;SDS011;9696;53.686;10.094;2023-09-07T09:14:36;3.78;;;2.22;;
19127;SDS011;9696;53.686;10.094;2023-09-07T09:17:10;6.30;;;2.30;;
19127;SDS011;9696;53.686;10.094;2023-09-07T09:19:42;4.28;;;2.10;;
19127;SDS011;9696;53.686;10.094;2023-09-07T09:22:11;11.07;;;2.00;;
19127;SDS011;9696;53.686;10.094;2023-09-07T09:24:40;5.57;;;2.03;;
19127;SDS011;9696;53.686;10.094;2023-09-07T09:27:09;3.75;;;2.17;;
19127;SDS011;9696;53.686;10.094;2023-09-07T09:29:39;13.38;;;2.30;;
19127;SDS011;9696;53.686;10.094;2023-09-07T09:32:09;2.90;;;1.90;;
19127;SDS011;9696;53.686;10.094;2023-09-07T09:34:44;7.00;;;2.30;;
19127;SDS011;9696;53.686;10.094;2023-09-07T09:37:13;3.40;;;2.20;;
19127;SDS011;9696;53.686;10.094;2023-09-07T09:39:43;3.00;;;2.00;;
19127;SDS011;9696;53.686;10.094;2023-09-07T09:42:17;5.65;;;2.00;;
19127;SDS011;9696;53.686;10.094;2023-09-07T09:44:46;7.43;;;1.98;;
19127;SDS011;9696;53.686;10.094;2023-09-07T09:47:17;9.75;;;2.10;;
19127;SDS011;9696;53.686;10.094;2023-09-07T09:49:48;2.45;;;2.10;;
19127;SDS011;9696;53.686;10.094;2023-09-07T09:52:18;5.72;;;1.90;;
19127;SDS011;9696;53.686;10.094;2023-09-07T09:54:49;4.63;;;1.90;;
19127;SDS011;9696;53.686;10.094;2023-09-07T09:57:19;9.85;;;2.47;;
19127;SDS011;9696;53.686;10.094;2023-09-07T09:59:48;4.30;;;1.75;;
19127;SDS011;9696;53.686;10.094;2023-09-07T10:02:18;5.72;;;1.60;;
19127;SDS011;9696;53.686;10.094;2023-09-07T10:04:49;11.82;;;2.20;;
19127;SDS011;9696;53.686;10.094;2023-09-07T10:07:19;2.75;;;2.22;;
19127;SDS011;9696;53.686;10.094;2023-09-07T10:09:57;12.45;;;2.30;;
19127;SDS011;9696;53.686;10.094;2023-09-07T10:12:27;5.57;;;2.10;;
19127;SDS011;9696;53.686;10.094;2023-09-07T10:14:56;3.20;;;2.08;;
19127;SDS011;9696;53.686;10.094;2023-09-07T10:17:25;6.88;;;1.92;;
19127;SDS011;9696;53.686;10.094;2023-09-07T10:20:05;8.38;;;2.00;;
19127;SDS011;9696;53.686;10.094;2023-09-07T10:22:35;3.63;;;1.80;;
19127;SDS011;9696;53.686;10.094;2023-09-07T10:25:05;3.08;;;2.00;;
19127;SDS011;9696;53.686;10.094;2023-09-07T10:27:45;13.70;;;2.42;;
19127;SDS011;9696;53.686;10.094;2023-09-07T10:30:14;3.15;;;2.00;;
19127;SDS011;9696;53.686;10.094;2023-09-07T10:32:46;2.63;;;1.85;;
19127;SDS011;9696;53.686;10.094;2023-09-07T10:35:18;8.38;;;1.92;;
19127;SDS011;9696;53.686;10.094;2023-09-07T10:37:48;10.43;;;1.83;;
19127;SDS011;9696;53.686;10.094;2023-09-07T10:40:18;12.05;;;3.10;;
19127;SDS011;9696;53.686;10.094;2023-09-07T10:42:49;3.47;;;1.73;;
19127;SDS011;9696;53.686;10.094;2023-09-07T10:45:28;7.45;;;2.00;;
19127;SDS011;9696;53.686;10.094;2023-09-07T10:47:57;5.00;;;1.70;;
19127;SDS011;9696;53.686;10.094;2023-09-07T10:50:28;4.45;;;1.88;;
19127;SDS011;9696;53.686;10.094;2023-09-07T10:52:57;9.50;;;2.20;;
19127;SDS011;9696;53.686;10.094;2023-09-07T10:55:26;5.07;;;2.15;;
19127;SDS011;9696;53.686;10.094;2023-09-07T10:57:55;26.45;;;2.60;;
19127;SDS011;9696;53.686;10.094;2023-09-07T11:00:25;7.80;;;1.90;;
19127;SDS011;9696;53.686;10.094;2023-09-07T11:02:55;33.33;;;3.03;;
19127;SDS011;9696;53.686;10.094;2023-09-07T11:05:25;15.85;;;1.90;;
19127;SDS011;9696;53.686;10.094;2023-09-07T11:07:56;4.05;;;2.20;;
19127;SDS011;9696;53.686;10.094;2023-09-07T11:10:27;5.97;;;1.77;;
19127;SDS011;9696;53.686;10.094;2023-09-07T11:13:01;12.13;;;1.95;;
19127;SDS011;9696;53.686;10.094;2023-09-07T11:15:32;5.18;;;1.90;;
19127;SDS011;9696;53.686;10.094;2023-09-07T11:18:05;3.95;;;2.00;;
19127;SDS011;9696;53.686;10.094;2023-09-07T11:20:37;2.17;;;1.75;;
19127;SDS011;9696;53.686;10.094;2023-09-07T11:23:06;7.90;;;1.98;;
19127;SDS011;9696;53.686;10.094;2023-09-07T11:25:36;6.18;;;1.95;;
19127;SDS011;9696;53.686;10.094;2023-09-07T11:28:06;3.22;;;1.80;;
19127;SDS011;9696;53.686;10.094;2023-09-07T11:30:37;4.15;;;2.00;;
19127;SDS011;9696;53.686;10.094;2023-09-07T11:33:17;6.40;;;1.98;;
19127;SDS011;9696;53.686;10.094;2023-09-07T11:35:48;5.80;;;1.73;;
19127;SDS011;9696;53.686;10.094;2023-09-07T11:38:17;4.25;;;1.83;;
19127;SDS011;9696;53.686;10.094;2023-09-07T11:40:46;11.55;;;2.40;;
19127;SDS011;9696;53.686;10.094;2023-09-07T11:43:16;4.63;;;1.50;;
19127;SDS011;9696;53.686;10.094;2023-09-07T11:45:46;3.97;;;1.77;;
19127;SDS011;9696;53.686;10.094;2023-09-07T11:48:16;3.13;;;1.70;;
19127;SDS011;9696;53.686;10.094;2023-09-07T11:50:45;2.85;;;1.60;;
19127;SDS011;9696;53.686;10.094;2023-09-07T11:53:16;2.67;;;1.77;;
19127;SDS011;9696;53.686;10.094;2023-09-07T11:55:45;8.00;;;1.80;;
19127;SDS011;9696;53.686;10.094;2023-09-07T11:58:14;5.68;;;1.50;;
19127;SDS011;9696;53.686;10.094;2023-09-07T12:00:43;5.15;;;1.65;;
19127;SDS011;9696;53.686;10.094;2023-09-07T12:03:12;5.55;;;1.88;;
19127;SDS011;9696;53.686;10.094;2023-09-07T12:05:41;5.45;;;1.60;;
19127;SDS011;9696;53.686;10.094;2023-09-07T12:08:12;2.08;;;1.48;;
19127;SDS011;9696;53.686;10.094;2023-09-07T12:10:42;3.55;;;1.60;;
19127;SDS011;9696;53.686;10.094;2023-09-07T12:13:11;3.53;;;2.22;;
19127;SDS011;9696;53.686;10.094;2023-09-07T12:15:40;7.60;;;1.80;;
19127;SDS011;9696;53.686;10.094;2023-09-07T12:18:10;5.03;;;1.90;;
19127;SDS011;9696;53.686;10.094;2023-09-07T12:20:39;4.72;;;1.88;;
19127;SDS011;9696;53.686;10.094;2023-09-07T12:23:09;3.78;;;1.50;;
19127;SDS011;9696;53.686;10.094;2023-09-07T12:25:40;2.60;;;1.60;;
19127;SDS011;9696;53.686;10.094;2023-09-07T12:28:09;2.45;;;1.63;;
19127;SDS011;9696;53.686;10.094;2023-09-07T12:30:38;1.73;;;1.63;;
19127;SDS011;9696;53.686;10.094;2023-09-07T12:33:11;5.57;;;1.80;;
19127;SDS011;9696;53.686;10.094;2023-09-07T12:35:41;4.03;;;2.00;;
19127;SDS011;9696;53.686;10.094;2023-09-07T12:38:10;6.85;;;1.77;;
19127;SDS011;9696;53.686;10.094;2023-09-07T12:40:45;7.82;;;1.80;;
19127;SDS011;9696;53.686;10.094;2023-09-07T12:43:14;6.32;;;1.80;;
19127;SDS011;9696;53.686;10.094;2023-09-07T12:45:45;2.45;;;1.80;;
19127;SDS011;9696;53.686;10.094;2023-09-07T12:48:15;5.25;;;1.60;;
19127;SDS011;9696;53.686;10.094;2023-09-07T12:50:44;4.13;;;1.90;;
19127;SDS011;9696;53.686;10.094;2023-09-07T12:53:13;5.03;;;1.85;;
19127;SDS011;9696;53.686;10.094;2023-09-07T12:55:43;5.85;;;1.80;;
19127;SDS011;9696;53.686;10.094;2023-09-07T12:58:13;6.60;;;2.03;;
19127;SDS011;9696;53.686;10.094;2023-09-07T13:00:42;11.70;;;2.22;;
19127;SDS011;9696;53.686;10.094;2023-09-07T13:03:14;4.43;;;1.85;;
19127;SDS011;9696;53.686;10.094;2023-09-07T13:05:44;4.32;;;1.85;;
19127;SDS011;9696;53.686;10.094;2023-09-07T13:08:13;4.00;;;2.40;;
19127;SDS011;9696;53.686;10.094;2023-09-07T13:10:42;4.28;;;2.10;;
19127;SDS011;9696;53.686;10.094;2023-09-07T13:13:12;7.25;;;2.15;;
19127;SDS011;9696;53.686;10.094;2023-09-07T13:15:43;5.38;;;1.95;;
19127;SDS011;9696;53.686;10.094;2023-09-07T13:18:12;2.28;;;1.83;;
19127;SDS011;9696;53.686;10.094;2023-09-07T13:20:41;4.88;;;1.75;;
19127;SDS011;9696;53.686;10.094;2023-09-07T13:23:12;8.05;;;1.73;;
19127;SDS011;9696;53.686;10.094;2023-09-07T13:25:41;3.78;;;1.80;;
19127;SDS011;9696;53.686;10.094;2023-09-07T13:28:10;4.38;;;2.20;;
19127;SDS011;9696;53.686;10.094;2023-09-07T13:30:41;1.65;;;1.50;;
19127;SDS011;9696;53.686;10.094;2023-09-07T13:33:10;3.00;;;1.35;;
19127;SDS011;9696;53.686;10.094;2023-09-07T13:35:42;11.13;;;1.88;;
19127;SDS011;9696;53.686;10.094;2023-09-07T13:38:12;2.53;;;1.60;;
19127;SDS011;9696;53.686;10.094;2023-09-07T13:40:41;3.35;;;1.80;;
19127;SDS011;9696;53.686;10.094;2023-09-07T13:43:10;6.25;;;1.58;;
19127;SDS011;9696;53.686;10.094;2023-09-07T13:45:41;4.00;;;1.48;;
19127;SDS011;9696;53.686;10.094;2023-09-07T13:48:11;6.50;;;1.70;;
19127;SDS011;9696;53.686;10.094;2023-09-07T13:50:40;7.55;;;1.77;;
19127;SDS011;9696;53.686;10.094;2023-09-07T13:53:10;8.15;;;2.10;;
19127;SDS011;9696;53.686;10.094;2023-09-07T13:55:39;12.52;;;1.80;;
19127;SDS011;9696;53.686;10.094;2023-09-07T13:58:13;4.63;;;1.63;;
19127;SDS011;9696;53.686;10.094;2023-09-07T14:00:42;4.53;;;1.83;;
19127;SDS011;9696;53.686;10.094;2023-09-07T14:03:13;3.22;;;1.90;;
19127;SDS011;9696;53.686;10.094;2023-09-07T14:05:42;2.33;;;1.50;;
19127;SDS011;9696;53.686;10.094;2023-09-07T14:08:11;8.90;;;2.00;;
19127;SDS011;9696;53.686;10.094;2023-09-07T14:10:41;4.07;;;2.10;;
19127;SDS011;9696;53.686;10.094;2023-09-07T14:13:10;6.13;;;1.50;;
19127;SDS011;9696;53.686;10.094;2023-09-07T14:15:40;6.22;;;1.95;;
19127;SDS011;9696;53.686;10.094;2023-09-07T14:18:10;8.05;;;2.00;;
19127;SDS011;9696;53.686;10.094;2023-09-07T14:20:39;6.18;;;1.67;;
19127;SDS011;9696;53.686;10.094;2023-09-07T14:23:08;5.63;;;1.95;;
19127;SDS011;9696;53.686;10.094;2023-09-07T14:25:37;5.35;;;1.63;;
19127;SDS011;9696;53.686;10.094;2023-09-07T14:28:08;5.90;;;1.55;;
19127;SDS011;9696;53.686;10.094;2023-09-07T14:30:39;3.50;;;1.77;;
19127;SDS011;9696;53.686;10.094;2023-09-07T14:33:08;3.80;;;1.48;;
19127;SDS011;9696;53.686;10.094;2023-09-07T14:35:37;4.55;;;1.70;;
19127;SDS011;9696;53.686;10.094;2023-09-07T14:38:07;8.00;;;2.13;;
19127;SDS011;9696;53.686;10.094;2023-09-07T14:40:36;2.55;;;1.67;;
19127;SDS011;9696;53.686;10.094;2023-09-07T14:43:06;4.43;;;2.00;;
19127;SDS011;9696;53.686;10.094;2023-09-07T14:45:39;4.82;;;1.60;;
19127;SDS011;9696;53.686;10.094;2023-09-07T14:48:08;2.70;;;1.90;;
19127;SDS011;9696;53.686;10.094;2023-09-07T14:50:37;2.72;;;1.70;;
19127;SDS011;9696;53.686;10.094;2023-09-07T14:53:06;4.75;;;1.77;;
19127;SDS011;9696;53.686;10.094;2023-09-07T14:55:35;4.40;;;1.75;;
19127;SDS011;9696;53.686;10.094;2023-09-07T14:58:04;11.07;;;1.90;;
19127;SDS011;9696;53.686;10.094;2023-09-07T15:00:36;2.85;;;1.83;;
19127;SDS011;9696;53.686;10.094;2023-09-07T15:03:07;3.58;;;1.75;;